Terminal Aerodrome Forecast
Issued by NWS Shreveport, LA

Home | Current Version | Previous Version | Text Only | Print | Product List | Glossary On
Versions: 1 2 3 4 5 6 7 8 9 10 11 12 13 14 15
000
FTUS44 KSHV 012300 RRA
TAFLFK
TAF
KLFK 012343Z 0200/0224 01007KT 2SM BR OVC004
      TEMPO 0211/0215 2SM -DZ BR OVC001
     FM021500 02006KT 1/2SM FG OVC004=

USA.gov is the U.S. government's official web portal to all federal, state and local government web resources and services.